createdAt,value
2019-01-02T00:02:29.723Z,99395.88
2019-01-02T00:05:00.371Z,99425.47
2019-01-02T00:07:31.005Z,99425.06
2019-01-02T00:10:01.774Z,99458.45
2019-01-02T00:12:32.451Z,99458.45
2019-01-02T00:15:03.003Z,99526.03
2019-01-02T00:17:33.902Z,99485.67
2019-01-02T00:20:05.803Z,99519.77
2019-01-02T00:22:38.152Z,99505.73
2019-01-02T00:25:09.336Z,99458.56
2019-01-02T00:27:40.103Z,99458.97
2019-01-02T00:30:11.109Z,99447.25
2019-01-02T00:32:43.354Z,99451.27
2019-01-02T00:35:15.208Z,99430.99
2019-01-02T00:37:46.301Z,99436.62
2019-01-02T00:40:17.281Z,99456.51
2019-01-02T00:42:50.441Z,99465.41
2019-01-02T00:45:22.365Z,99460.91
2019-01-02T00:47:54.319Z,99452.06
2019-01-02T00:50:25.365Z,99463.95
2019-01-02T00:52:58.297Z,99473.37
2019-01-02T00:55:29.128Z,99448.92
2019-01-02T00:57:59.811Z,99472.28
2019-01-02T01:00:31.514Z,99472.28
2019-01-02T01:03:04.140Z,99459.63
2019-01-02T01:05:37.216Z,99448.37
2019-01-02T01:08:08.280Z,99448.37
2019-01-02T01:10:39.473Z,99441.50
2019-01-02T01:13:10.253Z,99455.01
2019-01-02T01:15:43.570Z,99455.01
2019-01-02T01:18:14.418Z,99441.59
2019-01-02T01:20:45.225Z,99442.04
2019-01-02T01:23:18.417Z,99439.48
2019-01-02T01:25:49.217Z,99426.91
2019-01-02T01:28:20.406Z,99439.21
2019-01-02T01:30:51.354Z,99442.63
2019-01-02T01:33:22.436Z,99423.64
2019-01-02T01:35:55.436Z,99436.36
2019-01-02T01:38:26.342Z,99419.95
2019-01-02T01:40:57.473Z,99419.95
2019-01-02T01:43:28.123Z,99416.54
2019-01-02T01:45:59.628Z,99412.27
2019-01-02T01:48:32.429Z,99412.27
2019-01-02T01:51:05.982Z,99413.13
2019-01-02T01:53:37.478Z,99424.94
2019-01-02T01:56:09.788Z,99392.83
2019-01-02T01:58:40.678Z,99372.64
2019-01-02T02:01:12.320Z,99372.64
2019-01-02T02:03:44.783Z,99375.49
2019-01-02T02:06:18.042Z,99359.03
2019-01-02T02:08:49.115Z,99372.98
2019-01-02T02:11:19.483Z,99377.17
2019-01-02T02:13:50.413Z,99369.16
2019-01-02T02:16:21.186Z,99375.47
2019-01-02T02:18:52.083Z,99367.06
2019-01-02T02:21:22.491Z,99372.58
2019-01-02T02:23:53.557Z,99372.58
2019-01-02T02:26:24.523Z,99373.88
2019-01-02T02:28:54.921Z,99351.92
2019-01-02T02:31:25.474Z,99351.92
2019-01-02T02:33:56.435Z,99380.14
2019-01-02T02:36:27.213Z,99381.48
2019-01-02T02:38:59.598Z,99413.55
2019-01-02T02:41:31.649Z,99364.16
2019-01-02T02:44:04.789Z,99364.16
2019-01-02T02:46:35.663Z,99374.73
2019-01-02T02:49:06.664Z,99362.91
2019-01-02T02:51:39.814Z,99351.03
2019-01-02T02:54:10.784Z,99351.03
2019-01-02T02:56:43.754Z,99359.06
2019-01-02T02:59:14.853Z,99370.41
2019-01-02T03:01:47.773Z,99375.83
2019-01-02T03:04:18.666Z,99356.89
2019-01-02T03:06:49.311Z,99350.55
2019-01-02T03:09:19.973Z,99353.90
2019-01-02T03:11:50.310Z,99348.42
2019-01-02T03:14:20.726Z,99358.11
2019-01-02T03:16:51.463Z,99349.20
2019-01-02T03:19:22.227Z,99334.41
2019-01-02T03:21:54.513Z,99335.30
2019-01-02T03:24:25.841Z,99340.34
2019-01-02T03:26:56.728Z,99359.30
2019-01-02T03:29:27.150Z,99359.30
2019-01-02T03:31:57.802Z,99336.55
2019-01-02T03:34:28.951Z,99344.97
2019-01-02T03:36:59.833Z,99350.44
2019-01-02T03:39:32.880Z,99350.44
2019-01-02T03:42:03.812Z,99339.47
2019-01-02T03:44:34.948Z,99363.03
2019-01-02T03:47:07.878Z,99335.25
2019-01-02T03:49:38.927Z,99355.88
2019-01-02T03:52:10.039Z,99346.97
2019-01-02T03:54:41.088Z,99354.94
2019-01-02T03:57:14.016Z,99347.36
2019-01-02T03:59:45.027Z,99354.97
2019-01-02T04:02:15.977Z,99401.78
2019-01-02T04:04:48.124Z,99363.91
2019-01-02T04:07:20.274Z,99399.69
2019-01-02T04:09:50.665Z,99399.69
2019-01-02T04:12:21.103Z,99417.91
2019-01-02T04:14:51.884Z,99378.33
2019-01-02T04:17:22.512Z,99378.33
2019-01-02T04:19:53.093Z,99368.20
2019-01-02T04:22:23.487Z,99381.77
2019-01-02T04:24:54.098Z,99374.03
2019-01-02T04:27:27.208Z,99402.43
2019-01-02T04:29:59.701Z,99402.43
2019-01-02T04:32:32.218Z,99383.53
2019-01-02T04:35:03.221Z,99386.06
2019-01-02T04:37:34.257Z,99396.16
2019-01-02T04:40:10.387Z,99396.16
2019-01-02T04:42:43.051Z,99397.52
2019-01-02T04:45:15.004Z,99409.36
2019-01-02T04:47:45.674Z,99422.44
2019-01-02T04:50:16.414Z,99422.44
2019-01-02T04:52:47.283Z,99419.88
2019-01-02T04:55:18.166Z,99419.88
2019-01-02T04:57:48.934Z,99411.86
2019-01-02T05:00:19.411Z,99423.70
2019-01-02T05:02:50.895Z,99424.88
2019-01-02T05:05:21.235Z,99435.94
2019-01-02T05:07:51.981Z,99500.48
2019-01-02T05:10:22.609Z,99443.09
2019-01-02T05:12:53.058Z,99443.09
2019-01-02T05:15:23.431Z,99428.23
2019-01-02T05:17:54.155Z,99428.23
2019-01-02T05:20:24.785Z,99413.91
2019-01-02T05:22:55.333Z,99413.91
2019-01-02T05:25:26.049Z,99442.60
2019-01-02T05:27:56.408Z,99432.89
2019-01-02T05:30:27.602Z,99432.89
2019-01-02T05:32:58.105Z,99459.47
2019-01-02T05:35:28.890Z,99448.95
2019-01-02T05:37:59.317Z,99446.05
2019-01-02T05:40:30.234Z,99446.05
2019-01-02T05:43:00.930Z,99446.52
2019-01-02T05:45:31.703Z,99455.38
2019-01-02T05:48:02.351Z,99455.38
2019-01-02T05:50:40.011Z,99454.49
2019-01-02T05:53:11.766Z,99446.92
2019-01-02T05:55:47.643Z,99439.74
2019-01-02T05:58:20.632Z,99479.45
2019-01-02T06:00:51.504Z,99463.80
2019-01-02T06:03:22.490Z,99461.78
2019-01-02T06:05:53.499Z,99441.47
2019-01-02T06:08:23.872Z,99455.41
2019-01-02T06:10:54.597Z,99462.56
2019-01-02T06:13:27.718Z,99482.84
2019-01-02T06:15:58.626Z,99479.02
2019-01-02T06:18:29.482Z,99465.09
2019-01-02T06:21:02.525Z,99465.09
2019-01-02T06:23:33.843Z,99474.34
2019-01-02T06:26:06.229Z,99484.31
2019-01-02T06:28:37.611Z,99491.11
2019-01-02T06:31:08.688Z,99491.11
2019-01-02T06:33:41.625Z,99513.80
2019-01-02T06:36:12.663Z,99511.74
2019-01-02T06:38:43.659Z,99535.37
2019-01-02T06:41:16.668Z,99535.37
2019-01-02T06:43:48.004Z,99543.01
2019-01-02T06:46:18.375Z,99543.01
2019-01-02T06:48:49.009Z,99559.84
2019-01-02T06:51:19.849Z,99543.83
2019-01-02T06:53:50.573Z,99571.60
2019-01-02T06:56:21.385Z,99571.60
2019-01-02T06:58:52.606Z,99559.69
2019-01-02T07:01:23.378Z,99559.69
2019-01-02T07:03:53.896Z,99560.17
2019-01-02T07:06:25.205Z,99548.27
2019-01-02T07:08:55.560Z,99550.05
2019-01-02T07:11:26.841Z,99550.05
2019-01-02T07:13:58.845Z,99571.08
2019-01-02T07:16:30.954Z,99568.06
2019-01-02T07:19:04.182Z,99553.70
2019-01-02T07:21:35.063Z,99553.70
2019-01-02T07:24:06.166Z,99546.48
2019-01-02T07:26:36.908Z,99539.81
2019-01-02T07:29:08.892Z,99552.80
2019-01-02T07:31:41.060Z,99552.80
2019-01-02T07:34:19.555Z,99550.20
2019-01-02T07:37:31.214Z,99547.52
2019-01-02T07:40:37.956Z,99560.11
2019-01-02T07:43:52.792Z,99560.11
2019-01-02T07:46:57.798Z,99584.01
2019-01-02T07:49:47.485Z,99556.14
2019-01-02T07:52:53.635Z,99583.02
2019-01-02T07:55:59.614Z,99580.48
2019-01-02T07:59:08.191Z,99572.85
2019-01-02T08:02:33.134Z,99563.02
2019-01-02T08:05:29.989Z,99546.58
2019-01-02T08:08:32.751Z,99539.81
2019-01-02T08:11:31.910Z,99520.13
2019-01-02T08:14:36.144Z,99522.25
2019-01-02T08:17:39.470Z,99517.31
2019-01-02T08:20:51.597Z,99519.06
2019-01-02T08:23:53.232Z,99546.89
2019-01-02T08:27:03.268Z,99575.08
2019-01-02T08:30:24.100Z,99522.91
2019-01-02T08:33:29.048Z,99546.53
2019-01-02T08:36:40.864Z,99531.02
2019-01-02T08:39:57.065Z,99536.61
2019-01-02T08:43:16.349Z,99569.54
2019-01-02T08:46:25.063Z,99578.92
2019-01-02T08:49:23.942Z,99550.38
2019-01-02T08:52:37.320Z,99567.69
2019-01-02T08:56:01.738Z,99567.69
2019-01-02T08:59:21.783Z,99556.00
2019-01-02T09:02:09.390Z,99563.73
2019-01-02T09:05:26.770Z,99562.27
2019-01-02T09:08:54.306Z,99558.11
2019-01-02T09:11:44.061Z,99558.11
2019-01-02T09:14:45.015Z,99580.09
2019-01-02T09:18:00.280Z,99580.09
2019-01-02T09:21:24.003Z,99584.63
2019-01-02T09:24:50.117Z,99584.63
2019-01-02T09:27:52.432Z,99550.63
2019-01-02T09:31:17.811Z,99584.75
2019-01-02T09:34:29.658Z,99576.83
2019-01-02T09:37:52.247Z,99576.83
2019-01-02T09:41:04.104Z,99580.21
2019-01-02T09:44:18.036Z,99570.08
2019-01-02T09:47:37.988Z,99570.08
2019-01-02T09:50:35.416Z,99575.12
2019-01-02T09:53:40.578Z,99553.69
2019-01-02T09:56:49.918Z,99568.13
2019-01-02T09:59:58.419Z,99539.01
2019-01-02T10:03:03.877Z,99552.17
2019-01-02T10:06:30.228Z,99552.17
2019-01-02T10:10:00.825Z,99535.35
2019-01-02T10:13:09.711Z,99523.52
2019-01-02T10:16:34.656Z,99523.52
2019-01-02T10:19:33.404Z,99525.75
2019-01-02T10:22:56.362Z,99538.27
2019-01-02T10:26:16.671Z,99554.66
2019-01-02T10:29:19.046Z,99553.44
2019-01-02T10:32:27.774Z,99540.30
2019-01-02T10:35:30.871Z,99544.18
2019-01-02T10:38:46.917Z,99527.66
2019-01-02T10:42:08.141Z,99527.66
2019-01-02T10:45:15.007Z,99550.05
2019-01-02T10:48:34.929Z,99527.63
2019-01-02T10:52:00.718Z,99527.63
2019-01-02T10:55:13.517Z,99542.44
2019-01-02T10:58:08.474Z,99578.84
2019-01-02T11:01:02.803Z,99535.00
2019-01-02T11:04:24.634Z,99537.52
2019-01-02T11:07:21.480Z,99542.55
2019-01-02T11:10:47.439Z,99522.79
2019-01-02T11:13:38.303Z,99522.79
2019-01-02T11:16:43.862Z,99543.34
2019-01-02T11:20:17.756Z,99543.34
2019-01-02T11:23:38.539Z,99533.91
2019-01-02T11:26:48.204Z,99569.91
2019-01-02T11:29:57.686Z,99569.91
2019-01-02T11:33:01.535Z,99621.66
2019-01-02T11:36:10.268Z,99607.00
2019-01-02T11:39:18.148Z,99619.64
2019-01-02T11:42:16.102Z,99568.02
2019-01-02T11:45:09.430Z,99569.56
2019-01-02T11:48:02.519Z,99566.18
2019-01-02T11:50:36.933Z,99556.60
2019-01-02T11:53:17.401Z,99597.87
2019-01-02T11:55:49.173Z,99596.34
2019-01-02T11:58:20.304Z,99599.09
2019-01-02T12:00:57.079Z,99595.30
2019-01-02T12:03:29.487Z,99585.64
2019-01-02T12:06:04.333Z,99570.59
2019-01-02T12:08:37.076Z,99576.69
2019-01-02T12:11:14.130Z,99570.88
2019-01-02T12:13:51.659Z,99601.78
2019-01-02T12:16:25.252Z,99588.67
2019-01-02T12:19:00.001Z,99583.06
2019-01-02T12:21:31.478Z,99576.84
2019-01-02T12:24:09.791Z,99569.34
2019-01-02T12:26:46.187Z,99583.66
2019-01-02T12:29:24.346Z,99599.26
2019-01-02T12:31:58.270Z,99575.58
2019-01-02T12:34:35.101Z,99594.67
2019-01-02T12:37:15.811Z,99604.28
2019-01-02T12:39:50.113Z,99606.48
2019-01-02T12:42:28.138Z,99592.78
2019-01-02T12:45:06.777Z,99625.58
2019-01-02T12:47:45.588Z,99625.58
2019-01-02T12:50:36.863Z,99594.38
2019-01-02T12:53:17.257Z,99612.39
2019-01-02T12:55:53.076Z,99614.11
2019-01-02T12:58:27.322Z,99620.87
2019-01-02T13:01:15.564Z,99611.84
2019-01-02T13:04:14.936Z,99611.84
2019-01-02T13:07:28.818Z,99612.22
2019-01-02T13:10:30.452Z,99616.05
2019-01-02T13:14:13.892Z,99635.45
2019-01-02T13:17:22.068Z,99618.50
2019-01-02T13:20:34.814Z,99640.17
2019-01-02T13:23:31.548Z,99638.72
2019-01-02T13:26:54.787Z,99645.98
2019-01-02T13:29:54.894Z,99676.73
2019-01-02T13:33:04.893Z,99676.73
2019-01-02T13:36:34.531Z,99688.08
2019-01-02T13:39:37.803Z,99699.75
2019-01-02T13:42:50.909Z,99699.75
2019-01-02T13:45:51.383Z,99666.48
2019-01-02T13:48:50.975Z,99685.38
2019-01-02T13:51:31.020Z,99672.31
2019-01-02T13:54:03.832Z,99699.83
2019-01-02T13:56:37.884Z,99699.83
2019-01-02T13:59:09.841Z,99690.48
2019-01-02T14:01:43.466Z,99717.05
2019-01-02T14:04:15.948Z,99747.75
2019-01-02T14:06:50.047Z,99747.75
2019-01-02T14:09:22.640Z,99725.90
2019-01-02T14:11:57.423Z,99715.31
2019-01-02T14:14:29.637Z,99716.12
2019-01-02T14:17:02.771Z,99700.09
2019-01-02T14:19:33.723Z,99706.81
2019-01-02T14:22:04.234Z,99711.87
2019-01-02T14:24:34.689Z,99718.55
2019-01-02T14:27:05.123Z,99717.02
2019-01-02T14:29:44.989Z,99722.39
2019-01-02T14:32:15.885Z,99733.72
2019-01-02T14:34:48.844Z,99742.00
2019-01-02T14:37:21.995Z,99757.22
2019-01-02T14:39:55.945Z,99750.33
2019-01-02T14:42:26.561Z,99760.44
2019-01-02T14:45:00.209Z,99754.69
2019-01-02T14:47:31.825Z,99812.95
2019-01-02T14:50:02.765Z,99780.94
2019-01-02T14:52:35.897Z,99782.03
2019-01-02T14:55:09.294Z,99788.37
2019-01-02T14:57:40.947Z,99820.45
2019-01-02T15:00:14.634Z,99799.52
2019-01-02T15:02:46.930Z,99770.95
2019-01-02T15:05:24.056Z,99788.75
2019-01-02T15:07:56.958Z,99812.34
2019-01-02T15:10:29.875Z,99808.55
2019-01-02T15:13:03.765Z,99845.81
2019-01-02T15:15:34.154Z,99810.63
2019-01-02T15:18:04.562Z,99805.96
2019-01-02T15:20:36.982Z,99809.55
2019-01-02T15:23:08.075Z,99825.39
2019-01-02T15:25:46.152Z,99828.03
2019-01-02T15:28:23.243Z,99837.81
2019-01-02T15:31:00.874Z,99821.47
2019-01-02T15:33:33.038Z,99844.20
2019-01-02T15:36:06.468Z,99826.52
2019-01-02T15:38:43.066Z,99877.90
2019-01-02T15:41:14.646Z,99843.85
2019-01-02T15:43:46.079Z,99846.41
2019-01-02T15:46:17.149Z,99847.98
2019-01-02T15:48:48.156Z,99883.22
2019-01-02T15:51:23.390Z,99865.61
2019-01-02T15:54:04.970Z,99886.48
2019-01-02T15:56:39.485Z,99859.11
2019-01-02T15:59:12.134Z,99892.15
2019-01-02T16:01:45.629Z,99871.38
2019-01-02T16:04:18.667Z,99873.00
2019-01-02T16:06:50.291Z,99905.22
2019-01-02T16:09:23.488Z,99886.27
2019-01-02T16:11:55.300Z,99889.67
2019-01-02T16:14:34.983Z,99888.08
2019-01-02T16:17:07.351Z,99889.32
2019-01-02T16:19:40.165Z,99895.73
2019-01-02T16:22:13.847Z,99892.74
2019-01-02T16:24:47.573Z,99885.59
2019-01-02T16:27:22.767Z,99920.04
2019-01-02T16:29:54.975Z,99904.48
2019-01-02T16:32:27.270Z,99925.49
2019-01-02T16:34:58.197Z,99906.02
2019-01-02T16:37:32.381Z,99953.20
2019-01-02T16:40:12.215Z,99964.98
2019-01-02T16:43:08.887Z,99943.84
2019-01-02T16:45:41.476Z,99938.70
2019-01-02T16:48:18.250Z,99947.63
2019-01-02T16:50:49.477Z,99961.83
2019-01-02T16:53:22.414Z,99954.25
2019-01-02T16:55:53.623Z,99971.52
2019-01-02T16:58:24.106Z,99964.61
2019-01-02T17:00:54.586Z,99978.09
2019-01-02T17:03:27.401Z,99975.08
2019-01-02T17:05:59.379Z,99963.14
2019-01-02T17:08:30.519Z,99992.52
2019-01-02T17:11:03.457Z,99988.20
2019-01-02T17:13:34.327Z,100001.94
2019-01-02T17:16:05.137Z,100008.55
2019-01-02T17:18:35.904Z,100037.59
2019-01-02T17:21:06.558Z,100005.65
2019-01-02T17:23:37.620Z,100002.16
2019-01-02T17:26:08.418Z,100015.89
2019-01-02T17:28:38.937Z,100028.25
2019-01-02T17:31:10.939Z,100043.66
2019-01-02T17:33:42.835Z,100022.20
2019-01-02T17:36:13.510Z,100010.84
2019-01-02T17:38:46.538Z,100027.95
2019-01-02T17:41:18.702Z,100032.30
2019-01-02T17:43:50.607Z,100027.07
2019-01-02T17:46:23.814Z,100060.61
2019-01-02T17:48:54.640Z,100075.18
2019-01-02T17:51:26.025Z,100052.06
2019-01-02T17:53:56.638Z,100061.22
2019-01-02T17:56:27.546Z,100064.89
2019-01-02T17:59:02.841Z,100070.23
2019-01-02T18:01:34.794Z,100080.33
2019-01-02T18:04:05.258Z,100087.00
2019-01-02T18:06:35.623Z,100082.22
2019-01-02T18:09:08.410Z,100082.02
2019-01-02T18:11:39.750Z,100079.12
2019-01-02T18:14:12.476Z,100097.06
2019-01-02T18:16:44.728Z,100096.11
2019-01-02T18:19:16.098Z,100109.98
2019-01-02T18:21:46.788Z,100114.23
2019-01-02T18:24:19.902Z,100104.52
2019-01-02T18:26:50.866Z,100132.35
2019-01-02T18:29:23.905Z,100119.19
2019-01-02T18:31:55.638Z,100109.03
2019-01-02T18:34:26.175Z,100124.11
2019-01-02T18:36:56.806Z,100126.11
2019-01-02T18:39:27.312Z,100137.83
2019-01-02T18:41:57.812Z,100152.06
2019-01-02T18:44:28.478Z,100162.06
2019-01-02T18:46:58.873Z,100126.36
2019-01-02T18:49:29.637Z,100146.96
2019-01-02T18:52:00.277Z,100141.48
2019-01-02T18:54:30.866Z,100141.03
2019-01-02T18:57:01.569Z,100144.53
2019-01-02T18:59:32.239Z,100141.61
2019-01-02T19:02:02.893Z,100140.56
2019-01-02T19:04:33.675Z,100188.48
2019-01-02T19:07:05.713Z,100156.86
2019-01-02T19:09:37.956Z,100178.77
2019-01-02T19:12:10.389Z,100172.42
2019-01-02T19:14:42.185Z,100161.38
2019-01-02T19:17:13.081Z,100174.58
2019-01-02T19:19:43.983Z,100170.81
2019-01-02T19:22:16.980Z,100175.45
2019-01-02T19:24:47.980Z,100176.11
2019-01-02T19:27:19.011Z,100217.12
2019-01-02T19:29:50.099Z,100189.81
2019-01-02T19:32:21.144Z,100189.61
2019-01-02T19:34:52.166Z,100239.16
2019-01-02T19:37:24.065Z,100197.17
2019-01-02T19:39:56.095Z,100219.50
2019-01-02T19:42:27.292Z,100213.59
2019-01-02T19:45:00.225Z,100244.49
2019-01-02T19:47:30.814Z,100249.80
2019-01-02T19:50:01.561Z,100231.85
2019-01-02T19:52:32.066Z,100267.63
2019-01-02T19:55:02.805Z,100285.02
2019-01-02T19:57:33.214Z,100284.92
2019-01-02T20:00:05.834Z,100293.12
2019-01-02T20:02:37.338Z,100286.62
2019-01-02T20:05:08.445Z,100278.02
2019-01-02T20:07:39.291Z,100273.95
2019-01-02T20:10:11.147Z,100290.83
2019-01-02T20:12:43.451Z,100283.77
2019-01-02T20:15:14.514Z,100284.20
2019-01-02T20:17:47.413Z,100287.45
2019-01-02T20:20:18.405Z,100282.66
2019-01-02T20:22:49.490Z,100295.80
2019-01-02T20:25:22.500Z,100291.55
2019-01-02T20:27:53.294Z,100275.50
2019-01-02T20:30:24.149Z,100268.58
2019-01-02T20:32:55.427Z,100279.56
2019-01-02T20:35:27.457Z,100289.17
2019-01-02T20:37:59.518Z,100287.01
2019-01-02T20:40:30.535Z,100299.60
2019-01-02T20:43:01.367Z,100299.85
2019-01-02T20:45:32.026Z,100294.39
2019-01-02T20:48:02.534Z,100301.29
2019-01-02T20:50:33.145Z,100309.13
2019-01-02T20:53:03.548Z,100311.64
2019-01-02T20:55:34.251Z,100303.58
2019-01-02T20:58:04.868Z,100297.25
2019-01-02T21:00:35.871Z,100320.23
2019-01-02T21:03:06.307Z,100293.91
2019-01-02T21:05:38.452Z,100275.66
2019-01-02T21:08:10.552Z,100312.53
2019-01-02T21:10:41.625Z,100303.09
2019-01-02T21:13:14.470Z,100303.09
2019-01-02T21:15:45.653Z,100289.13
2019-01-02T21:18:18.470Z,100313.72
2019-01-02T21:20:49.618Z,100303.61
2019-01-02T21:23:20.598Z,100287.64
2019-01-02T21:25:53.694Z,100287.81
2019-01-02T21:28:24.122Z,100281.30
2019-01-02T21:30:55.641Z,100266.15
2019-01-02T21:33:27.720Z,100284.91
2019-01-02T21:35:59.667Z,100302.06
2019-01-02T21:38:30.750Z,100283.49
2019-01-02T21:41:01.694Z,100294.27
2019-01-02T21:43:32.766Z,100295.61
2019-01-02T21:46:03.826Z,100308.47
2019-01-02T21:48:34.296Z,100298.41
2019-01-02T21:51:04.826Z,100284.84
2019-01-02T21:53:35.569Z,100283.89
2019-01-02T21:56:06.083Z,100278.34
2019-01-02T21:58:36.627Z,100277.48
2019-01-02T22:01:07.373Z,100273.88
2019-01-02T22:03:38.332Z,100291.75
2019-01-02T22:06:08.976Z,100290.17
2019-01-02T22:08:41.057Z,100283.02
2019-01-02T22:11:12.808Z,100269.23
2019-01-02T22:13:43.747Z,100279.92
2019-01-02T22:16:16.890Z,100295.09
2019-01-02T22:18:49.802Z,100286.92
2019-01-02T22:21:24.939Z,100290.58
2019-01-02T22:23:57.981Z,100296.70
2019-01-02T22:26:29.019Z,100279.53
2019-01-02T22:28:59.775Z,100275.31
2019-01-02T22:31:30.595Z,100271.34
2019-01-02T22:34:01.548Z,100283.06
2019-01-02T22:36:32.210Z,100300.17
2019-01-02T22:39:04.323Z,100296.58
2019-01-02T22:41:36.973Z,100294.93
2019-01-02T22:44:07.972Z,100293.43
2019-01-02T22:46:41.053Z,100291.43
2019-01-02T22:49:11.925Z,100303.78
2019-01-02T22:51:43.043Z,100294.58
2019-01-02T22:54:17.129Z,100323.68
2019-01-02T22:56:50.069Z,100310.42
2019-01-02T22:59:21.147Z,100312.07
2019-01-02T23:01:59.086Z,100305.78
2019-01-02T23:04:50.252Z,100312.35
2019-01-02T23:07:43.828Z,100315.09
2019-01-02T23:10:36.379Z,100353.33
2019-01-02T23:13:36.914Z,100320.30
2019-01-02T23:16:28.069Z,100325.92
2019-01-02T23:19:19.988Z,100331.69
2019-01-02T23:22:11.994Z,100341.67
2019-01-02T23:25:01.530Z,100344.47
2019-01-02T23:28:09.925Z,100365.69
2019-01-02T23:31:04.957Z,100353.93
2019-01-02T23:34:05.807Z,100397.05
2019-01-02T23:36:53.452Z,100381.66
2019-01-02T23:39:43.219Z,100368.30
2019-01-02T23:42:41.635Z,100354.02
2019-01-02T23:45:44.072Z,100352.13
2019-01-02T23:48:22.895Z,100361.20
2019-01-02T23:51:12.729Z,100349.19
2019-01-02T23:54:02.409Z,100343.48
2019-01-02T23:56:53.152Z,100355.00
2019-01-02T23:59:41.570Z,100356.75
